createdAt,value
2022-11-26T00:04:39.450Z,6.22
2022-11-26T00:09:42.706Z,6.25
2022-11-26T00:14:47.997Z,6.23
2022-11-26T00:19:51.372Z,6.21
2022-11-26T00:24:54.709Z,6.21
2022-11-26T00:29:58.957Z,6.22
2022-11-26T00:35:01.784Z,6.20
2022-11-26T00:40:05.235Z,6.12
2022-11-26T00:45:16.921Z,6.02
2022-11-26T00:50:22.409Z,5.91
2022-11-26T00:55:30.922Z,5.90
2022-11-26T01:00:36.349Z,5.87
2022-11-26T01:05:39.240Z,5.75
2022-11-26T01:10:42.022Z,5.68
2022-11-26T01:15:46.213Z,5.65
2022-11-26T01:20:49.213Z,5.60
2022-11-26T01:25:51.918Z,5.52
2022-11-26T01:30:55.994Z,5.44
2022-11-26T01:35:58.844Z,5.32
2022-11-26T01:41:12.512Z,5.27
2022-11-26T01:46:18.637Z,5.18
2022-11-26T01:51:26.763Z,5.11
2022-11-26T01:56:34.902Z,5.03
2022-11-26T02:01:39.988Z,4.89
2022-11-26T02:06:44.642Z,4.81
2022-11-26T02:11:47.674Z,4.74
2022-11-26T02:17:11.363Z,4.78
2022-11-26T02:22:31.824Z,4.79
2022-11-26T02:28:05.334Z,4.78
2022-11-26T02:33:12.986Z,4.76
2022-11-26T02:38:20.555Z,4.71
2022-11-26T02:43:25.344Z,4.60
2022-11-26T02:48:33.257Z,4.53
2022-11-26T02:53:37.824Z,4.42
2022-11-26T02:58:40.904Z,4.29
2022-11-26T03:03:50.082Z,4.31
2022-11-26T03:08:55.711Z,4.16
2022-11-26T03:13:58.599Z,3.95
2022-11-26T03:19:02.865Z,3.94
2022-11-26T03:24:07.247Z,3.76
2022-11-26T03:29:10.117Z,3.59
2022-11-26T03:34:14.285Z,3.48
2022-11-26T03:39:17.006Z,3.40
2022-11-26T03:44:19.784Z,3.23
2022-11-26T03:49:23.940Z,3.16
2022-11-26T03:54:27.961Z,2.99
2022-11-26T03:59:30.704Z,2.89
2022-11-26T04:04:34.951Z,2.83
2022-11-26T04:09:38.111Z,2.77
2022-11-26T04:14:41.200Z,2.72
2022-11-26T04:19:45.621Z,2.60
2022-11-26T04:24:48.364Z,2.52
2022-11-26T04:29:51.068Z,2.44
2022-11-26T04:34:55.201Z,2.45
2022-11-26T04:39:58.317Z,2.34
2022-11-26T04:45:01.196Z,2.28
2022-11-26T04:50:06.185Z,2.22
2022-11-26T04:55:09.659Z,2.23
2022-11-26T05:00:13.685Z,2.18
2022-11-26T05:05:18.184Z,2.15
2022-11-26T05:10:21.206Z,2.05
2022-11-26T05:15:23.941Z,2.02
2022-11-26T05:20:28.013Z,1.98
2022-11-26T05:25:30.873Z,1.82
2022-11-26T05:30:33.594Z,1.76
2022-11-26T05:35:38.884Z,1.69
2022-11-26T05:40:41.697Z,1.69
2022-11-26T05:45:44.652Z,1.67
2022-11-26T05:50:53.194Z,1.69
2022-11-26T05:55:57.416Z,1.67
2022-11-26T06:01:00.250Z,1.52
2022-11-26T06:06:04.896Z,1.58
2022-11-26T06:11:07.734Z,1.56
2022-11-26T06:16:10.788Z,1.53
2022-11-26T06:21:14.999Z,1.48
2022-11-26T06:26:17.732Z,1.46
2022-11-26T06:31:20.537Z,1.38
2022-11-26T06:36:25.535Z,1.32
2022-11-26T06:41:28.242Z,1.31
2022-11-26T06:46:31.395Z,1.27
2022-11-26T06:51:35.629Z,1.32
2022-11-26T06:56:39.380Z,1.34
2022-11-26T07:01:42.258Z,1.35
2022-11-26T07:06:47.064Z,1.47
2022-11-26T07:11:50.112Z,1.67
2022-11-26T07:16:52.828Z,1.68
2022-11-26T07:21:57.629Z,1.75
2022-11-26T07:27:00.444Z,1.94
2022-11-26T07:32:04.004Z,2.08
2022-11-26T07:37:08.273Z,2.00
2022-11-26T07:42:11.021Z,2.00
2022-11-26T07:47:13.837Z,2.19
2022-11-26T07:52:18.086Z,2.28
2022-11-26T07:57:22.480Z,2.35
2022-11-26T08:02:25.416Z,2.57
2022-11-26T08:07:29.832Z,2.74
2022-11-26T08:12:32.674Z,2.79
2022-11-26T08:17:35.453Z,2.83
2022-11-26T08:22:39.658Z,3.02
2022-11-26T08:27:42.535Z,3.27
2022-11-26T08:32:45.350Z,3.52
2022-11-26T08:37:49.512Z,3.73
2022-11-26T08:42:52.322Z,3.88
2022-11-26T08:47:55.260Z,4.03
2022-11-26T08:52:59.440Z,4.17
2022-11-26T08:58:02.455Z,4.39
2022-11-26T09:03:05.471Z,4.60
2022-11-26T09:08:09.781Z,4.84
2022-11-26T09:13:15.126Z,5.01
2022-11-26T09:18:20.190Z,5.09
2022-11-26T09:23:24.354Z,5.14
2022-11-26T09:28:28.403Z,5.12
2022-11-26T09:33:31.843Z,5.30
2022-11-26T09:38:37.097Z,5.47
2022-11-26T09:43:53.531Z,5.66
2022-11-26T09:49:02.606Z,5.89
2022-11-26T09:54:11.858Z,6.04
2022-11-26T09:59:18.896Z,5.93
2022-11-26T10:04:28.017Z,6.30
2022-11-26T10:09:57.591Z,6.50
2022-11-26T10:15:09.838Z,6.65
2022-11-26T10:20:50.585Z,6.52
2022-11-26T10:25:59.507Z,6.49
2022-11-26T10:31:04.186Z,6.80
2022-11-26T10:36:17.555Z,6.84
2022-11-26T10:41:23.125Z,6.80
2022-11-26T10:46:35.148Z,6.91
2022-11-26T10:51:38.500Z,6.95
2022-11-26T10:56:46.330Z,7.31
2022-11-26T11:01:51.686Z,7.07
2022-11-26T11:06:58.965Z,7.27
2022-11-26T11:12:19.764Z,7.53
2022-11-26T11:17:41.114Z,7.33
2022-11-26T11:22:44.723Z,7.41
2022-11-26T11:27:49.900Z,7.55
2022-11-26T11:32:56.751Z,7.17
2022-11-26T11:38:00.005Z,7.42
2022-11-26T11:43:07.644Z,7.37
2022-11-26T11:48:22.831Z,7.32
2022-11-26T11:53:37.008Z,7.61
2022-11-26T11:58:58.810Z,7.58
2022-11-26T12:04:21.068Z,7.66
2022-11-26T12:09:28.148Z,7.58
2022-11-26T12:14:39.925Z,7.52
2022-11-26T12:19:49.672Z,7.49
2022-11-26T12:24:57.588Z,7.42
2022-11-26T12:30:06.181Z,7.30
2022-11-26T12:35:16.685Z,7.26
2022-11-26T12:40:30.044Z,7.15
2022-11-26T12:45:44.562Z,7.30
2022-11-26T12:50:52.774Z,7.21
2022-11-26T12:56:01.800Z,7.32
2022-11-26T13:01:06.394Z,7.60
2022-11-26T13:06:21.923Z,7.55
2022-11-26T13:11:35.644Z,7.47
2022-11-26T13:16:45.954Z,7.55
2022-11-26T13:22:05.934Z,7.56
2022-11-26T13:27:36.416Z,7.48
2022-11-26T13:33:03.893Z,7.28
2022-11-26T13:38:21.126Z,7.30
2022-11-26T13:43:53.629Z,7.23
2022-11-26T13:49:02.906Z,7.29
2022-11-26T13:54:12.737Z,7.18
2022-11-26T13:59:21.657Z,7.13
2022-11-26T14:04:54.353Z,6.96
2022-11-26T14:10:02.084Z,6.95
2022-11-26T14:15:35.261Z,6.83
2022-11-26T14:21:13.833Z,6.78
2022-11-26T14:26:20.036Z,6.82
2022-11-26T14:31:25.177Z,6.93
2022-11-26T14:36:31.321Z,6.87
2022-11-26T14:41:35.976Z,6.81
2022-11-26T14:46:39.457Z,6.87
2022-11-26T14:51:45.825Z,6.90
2022-11-26T14:56:48.733Z,6.92
2022-11-26T15:01:51.590Z,6.86
2022-11-26T15:06:56.032Z,6.83
2022-11-26T15:12:05.505Z,6.76
2022-11-26T15:17:12.559Z,6.68
2022-11-26T15:22:24.049Z,6.67
2022-11-26T15:27:31.679Z,6.51
2022-11-26T15:32:35.090Z,6.30
2022-11-26T15:37:39.228Z,6.17
2022-11-26T15:42:41.945Z,5.98
2022-11-26T15:47:48.037Z,5.87
2022-11-26T15:52:57.236Z,5.75
2022-11-26T15:58:03.883Z,5.68
2022-11-26T16:03:35.475Z,5.59
2022-11-26T16:08:42.984Z,5.49
2022-11-26T16:13:46.097Z,5.29
2022-11-26T16:18:54.897Z,5.22
2022-11-26T16:24:05.472Z,5.11
2022-11-26T16:29:10.757Z,5.00
2022-11-26T16:34:14.857Z,4.89
2022-11-26T16:39:18.278Z,4.86
2022-11-26T16:44:21.052Z,4.78
2022-11-26T16:49:26.554Z,4.78
2022-11-26T16:54:29.369Z,4.77
2022-11-26T16:59:32.088Z,4.72
2022-11-26T17:04:36.305Z,4.70
2022-11-26T17:09:39.372Z,4.67
2022-11-26T17:14:42.330Z,4.72
2022-11-26T17:19:46.458Z,4.75
2022-11-26T17:24:49.241Z,4.76
2022-11-26T17:29:52.254Z,4.80
2022-11-26T17:34:56.460Z,4.83
2022-11-26T17:39:59.413Z,4.85
2022-11-26T17:45:02.337Z,4.93
2022-11-26T17:50:08.302Z,4.94
2022-11-26T17:55:12.188Z,4.95
2022-11-26T18:00:18.360Z,5.00
2022-11-26T18:05:23.366Z,5.06
2022-11-26T18:10:26.170Z,5.09
2022-11-26T18:15:29.073Z,5.12
2022-11-26T18:20:33.248Z,5.17
2022-11-26T18:25:36.022Z,5.19
2022-11-26T18:30:38.800Z,5.23
2022-11-26T18:35:43.508Z,5.25
2022-11-26T18:40:46.299Z,5.27
2022-11-26T18:45:49.450Z,5.31
2022-11-26T18:50:58.493Z,5.32
2022-11-26T18:56:01.397Z,5.35
2022-11-26T19:01:13.485Z,5.36
2022-11-26T19:06:20.544Z,5.37
2022-11-26T19:11:24.047Z,5.36
2022-11-26T19:16:27.427Z,5.39
2022-11-26T19:21:33.736Z,5.35
2022-11-26T19:26:37.764Z,5.29
2022-11-26T19:31:40.911Z,5.26
2022-11-26T19:36:48.506Z,5.34
2022-11-26T19:41:51.669Z,5.33
2022-11-26T19:46:54.481Z,5.32
2022-11-26T19:51:58.693Z,5.32
2022-11-26T19:57:01.505Z,5.30
2022-11-26T20:02:04.402Z,5.33
2022-11-26T20:07:08.803Z,5.30
2022-11-26T20:12:11.935Z,5.25
2022-11-26T20:17:14.829Z,5.26
2022-11-26T20:22:18.987Z,5.28
2022-11-26T20:27:21.831Z,5.27
2022-11-26T20:32:24.580Z,5.24
2022-11-26T20:37:28.931Z,5.25
2022-11-26T20:42:33.561Z,5.27
2022-11-26T20:47:36.442Z,5.20
2022-11-26T20:52:40.616Z,5.24
2022-11-26T20:57:43.445Z,5.21
2022-11-26T21:02:46.593Z,5.23
2022-11-26T21:07:51.817Z,5.18
2022-11-26T21:12:54.604Z,5.15
2022-11-26T21:17:57.543Z,5.16
2022-11-26T21:23:01.698Z,5.20
2022-11-26T21:28:04.998Z,5.22
2022-11-26T21:33:09.646Z,5.19
2022-11-26T21:38:13.933Z,5.19
2022-11-26T21:43:16.691Z,5.19
2022-11-26T21:48:19.519Z,5.24
2022-11-26T21:53:23.806Z,5.27
2022-11-26T21:58:26.807Z,5.26
2022-11-26T22:03:29.582Z,5.25
2022-11-26T22:08:33.721Z,5.17
2022-11-26T22:13:36.537Z,5.26
2022-11-26T22:18:40.996Z,5.27
2022-11-26T22:23:45.811Z,5.30
2022-11-26T22:28:49.667Z,5.28
2022-11-26T22:33:56.184Z,5.26
2022-11-26T22:39:01.900Z,5.21
2022-11-26T22:44:05.093Z,5.16
2022-11-26T22:49:11.953Z,5.15
2022-11-26T22:54:18.146Z,5.11
2022-11-26T22:59:20.930Z,5.09
2022-11-26T23:04:23.964Z,4.95
2022-11-26T23:09:28.154Z,4.95
2022-11-26T23:14:30.962Z,4.87
2022-11-26T23:19:33.821Z,4.94
2022-11-26T23:24:37.963Z,4.92
2022-11-26T23:29:40.955Z,4.90
2022-11-26T23:34:43.880Z,4.76
2022-11-26T23:39:47.957Z,4.82
2022-11-26T23:44:50.677Z,4.72
2022-11-26T23:49:57.178Z,4.70
2022-11-26T23:55:03.897Z,4.73
